• Join FlightAware (Why Join?)
  • Login
  • US Flag 
08:25PM EDT


 

Airport Tracker/Info


-or-


 

Live Flight TrackerFlight Track Log ✈ SWA1245 ✈ 29-Jun-2013 ✈ KSNA - KSFO

Flight Track Log - Related Links

Times and Time Zones

All times are in EDT time to prevent confusion due to time zone crossing. See the SWA1245 flight status page for this flight to view local times or setup timezone preferences in your user account.

Time Position Orientation Groundspeed Altitude Reporting Facility
EDT Latitude Longitude Course Direction KTS MPH feet Rate Location/Type
02:27PM 33.5840 -117.9000 190° South 172 198 3,600  Level FlightAware
02:28PM 33.5550 -117.9150 203° Southwest 226 260 4,600 1,860 Climbing FlightAware
02:28PM 33.5440 -117.9230 211° Southwest 244 281 5,000 2,280 Climbing FlightAware
02:28PM 33.5100 -117.9500 214° Southwest 278 320 6,300 2,700 Climbing FlightAware
02:29PM 33.4800 -117.9730 213° Southwest 284 327 7,800 3,480 Climbing FlightAware
02:29PM 33.4470 -117.9980 212° Southwest 284 327 9,700 2,760 Climbing FlightAware
02:34PM 33.4850 -118.4580 276° West 427 491 23,100 2,580 Climbing FlightAware
02:37PM 33.7030 -118.7330 314° West 457 526 29,000 2,340 Climbing FlightAware
02:37PM 33.7630 -118.8090 314° West 468 539 30,200 1,620 Climbing FlightAware
02:38PM 33.8240 -118.8870 313° West 476 548 31,300 1,800 Climbing FlightAware
02:39PM 33.8960 -118.9740 315° West 474 545 32,900 2,220 Climbing FlightAware
02:39PM 33.9540 -119.0400 317° Northwest 467 537 34,300 2,220 Climbing FlightAware
02:40PM 34.0470 -119.1440 317° Northwest 456 525 36,500 1,920 Climbing FlightAware
02:41PM 34.1160 -119.2220 317° Northwest 452 520 37,700 1,560 Climbing FlightAware
02:42PM 34.1770 -119.2910 317° Northwest 448 516 38,800 1,080 Climbing FlightAware
02:43PM 34.2700 -119.3970 317° Northwest 442 509 39,700 600 Climbing FlightAware
02:44PM 34.3380 -119.4750 317° Northwest 442 509 40,000  Climbing FlightAware
02:49PM 34.7860 -119.9870 317° Northwest 451 519 40,000  Level FlightAware
02:49PM 34.8560 -120.0690 316° Northwest 451 519 40,000  Level FlightAware
02:52PM 35.0850 -120.3340 317° Northwest 453 521 40,000  Level FlightAware
02:53PM 35.1750 -120.4400 316° Northwest 454 522 40,000  Level FlightAware
02:54PM 35.2550 -120.5350 316° Northwest 456 525 40,000  Level FlightAware
02:56PM 35.4740 -120.7690 319° Northwest 458 527 40,000  Level FlightAware
02:57PM 35.5550 -120.8450 323° Northwest 460 529 40,000  Level FlightAware
02:58PM 35.6270 -120.9100 324° Northwest 459 528 40,000  Level FlightAware
02:58PM 35.6890 -120.9680 323° Northwest 459 528 40,000  Level FlightAware
02:59PM 35.7650 -121.0390 323° Northwest 456 525 40,000 -540 Level FlightAware
03:00PM 35.8990 -121.1630 323° Northwest 449 517 38,900 -1,620 Descending FlightAware
03:01PM 36.0020 -121.2590 323° Northwest 446 513 36,200 -2,820 Descending FlightAware
03:02PM 36.0650 -121.3190 322° Northwest 449 517 34,200 -2,940 Descending FlightAware
03:03PM 36.1300 -121.3790 323° Northwest 446 513 32,400 -2,520 Descending FlightAware
03:03PM 36.2090 -121.4540 323° Northwest 452 520 30,600 -2,340 Descending FlightAware
03:04PM 36.2740 -121.5160 322° Northwest 440 506 29,000 -2,400 Descending FlightAware
03:05PM 36.3570 -121.5930 323° Northwest 426 490 27,000 -2,280 Descending FlightAware
03:06PM 36.4340 -121.6660 323° Northwest 415 478 25,200 -2,220 Descending FlightAware
03:06PM 36.4960 -121.7260 322° Northwest 406 467 23,700 -2,220 Descending FlightAware
03:07PM 36.5520 -121.7790 323° Northwest 396 456 22,300 -2,100 Descending FlightAware
03:08PM 36.6130 -121.8370 323° Northwest 385 443 20,900 -1,920 Descending FlightAware
03:09PM 36.6730 -121.8950 322° Northwest 375 432 19,600 -2,040 Descending FlightAware
03:09PM 36.7230 -121.9420 323° Northwest 371 427 18,300 -2,100 Descending FlightAware
03:10PM 36.8280 -121.9860 341° North 363 418 16,000 -1,740 Descending FlightAware
03:12PM 36.9770 -122.0250 348° North 312 359 13,700 -1,380 Descending FlightAware
03:13PM 37.0310 -122.0390 348° North 284 327 13,000 -1,260 Descending FlightAware
03:13PM 37.0840 -122.0620 341° North 269 310 12,000 -1,260 Descending FlightAware
03:14PM 37.1130 -122.1120 306° West 257 296 11,300 -1,200 Descending FlightAware
03:15PM 37.1390 -122.1570 306° West 253 291 10,500 -1,380 Descending FlightAware
03:15PM 37.1600 -122.1920 307° West 249 287 9,800 -1,320 Descending FlightAware
03:15PM 37.1700 -122.2020 321° Northwest 247 284 9,600 -1,380 Descending FlightAware
03:16PM 37.2140 -122.2400 325° Northwest 241 277 8,500 -1,440 Descending FlightAware
03:17PM 37.2420 -122.2650 325° Northwest 239 275 7,800 -1,500 Descending FlightAware
03:17PM 37.2660 -122.2870 324° Northwest 242 278 7,100 -1,320 Descending FlightAware
03:17PM 37.2760 -122.2960 324° Northwest 242 278 7,000 -180 Descending FlightAware
03:18PM 37.3060 -122.3230 324° Northwest 241 277 7,000  Level FlightAware
03:18PM 37.3170 -122.3290 337° Northwest 240 276 7,000 -1,080 Level FlightAware
03:18PM 37.3450 -122.3130 24° Northeast 237 273 6,300 -1,260 Descending FlightAware
03:19PM 37.3490 -122.2940 75° East 237 273 6,100 -720 Descending FlightAware
03:19PM 37.3520 -122.2800 75° East 236 272 6,000 -180 Descending FlightAware
03:19PM 37.3600 -122.2420 75° East 237 273 6,000 -300 Level FlightAware
03:20PM 37.3770 -122.1980 64° Northeast 235 270 5,700 -1,080 Descending FlightAware
03:21PM 37.4160 -122.1290 55° Northeast 222 255 4,300 -1,320 Descending FlightAware
03:21PM 37.4270 -122.1210 30° Northeast 211 243 4,200 -360 Descending FlightAware
03:22PM 37.4610 -122.1010 25° Northeast 196 226 4,000 -240 Descending FlightAware
03:22PM 37.4770 -122.1070 343° North 190 219 4,000 -240 Level FlightAware
03:23PM 37.4980 -122.1260 324° Northwest 175 201 3,800 -660 Descending FlightAware
03:23PM 37.5140 -122.1390 327° Northwest 169 194 3,400 -960 Descending FlightAware
03:23PM 37.5210 -122.1480 314° West 165 190 3,200 -1,080 Descending FlightAware
03:23PM 37.5280 -122.1610 304° West 164 189 2,900 -960 Descending FlightAware
03:24PM 37.5380 -122.1840 299° West 165 190 2,500 -480 Descending FlightAware
03:24PM 37.5480 -122.2060 300° West 166 191 2,500 -540 Level FlightAware
03:26PM 37.5810 -122.2870 297° West 145 167 1,400 -720 Descending FlightAware
03:26PM 37.5850 -122.2950 302° West 140 161 1,200 -900 Descending FlightAware
03:27PM 37.5920 -122.3110 299° West 133 153 900 -840 Descending FlightAware
03:27PM 37.5980 -122.3250 298° West 133 153 600 -720 Descending FlightAware
03:27PM 37.6020 -122.3360 295° West 132 152 500 -600 Descending FlightAware
03:28PM 37.6100 -122.3540 299° West 128 147 200 -720 Descending FlightAware
03:28PM 37.6160 -122.3680 298° West 115 132 -600 Descending FlightAware
03:29PM 37.6190 -122.3770 293° West 19 22  Level FlightAware
03:29PM 37.6190 -122.3790 270° West 24 28  Level FlightAware
03:31PM 37.6120 -122.3820 199° South 17 20  Level FlightAware
03:31PM 37.6110 -122.3830 218° Southwest 26 30  Level FlightAware
03:32PM 37.6120 -122.3820 38° Northeast 23 26  Level FlightAware
03:32PM 37.6130 -122.3830 322° Northwest 10 12  Level FlightAware
03:36PM 37.6167 -122.3667 North  Level FlightAware Approximate